createdAt,value
2024-03-03T00:02:36.777Z,4.85
2024-03-03T00:05:39.085Z,4.57
2024-03-03T00:08:41.381Z,4.40
2024-03-03T00:11:43.629Z,4.72
2024-03-03T00:14:45.823Z,4.17
2024-03-03T00:17:48.055Z,4.75
2024-03-03T00:20:50.389Z,3.63
2024-03-03T00:23:52.685Z,4.78
2024-03-03T00:26:54.972Z,4.65
2024-03-03T00:29:57.611Z,5.27
2024-03-03T00:32:59.865Z,4.20
2024-03-03T00:36:02.199Z,4.25
2024-03-03T00:39:05.451Z,3.65
2024-03-03T00:42:07.670Z,4.63
2024-03-03T00:45:09.943Z,3.87
2024-03-03T00:48:12.271Z,4.25
2024-03-03T00:51:14.516Z,4.15
2024-03-03T00:54:16.740Z,3.88
2024-03-03T00:57:19.661Z,4.13
2024-03-03T01:00:22.225Z,4.30
2024-03-03T01:03:25.116Z,4.13
2024-03-03T01:06:27.411Z,4.10
2024-03-03T01:09:30.447Z,4.13
2024-03-03T01:12:32.900Z,4.68
2024-03-03T01:15:35.140Z,4.67
2024-03-03T01:18:37.419Z,4.45
2024-03-03T01:21:40.925Z,4.05
2024-03-03T01:24:43.278Z,4.50
2024-03-03T01:27:45.674Z,4.13
2024-03-03T01:30:47.951Z,4.43
2024-03-03T01:33:50.294Z,3.85
2024-03-03T01:36:53.598Z,3.67
2024-03-03T01:39:55.929Z,4.13
2024-03-03T01:42:58.380Z,4.32
2024-03-03T01:46:00.803Z,3.93
2024-03-03T01:49:03.291Z,3.67
2024-03-03T01:52:06.379Z,5.10
2024-03-03T01:55:09.441Z,4.43
2024-03-03T01:58:12.395Z,5.10
2024-03-03T02:01:16.004Z,4.87
2024-03-03T02:04:18.444Z,4.65
2024-03-03T02:07:21.991Z,4.65
2024-03-03T02:10:25.030Z,4.20
2024-03-03T02:13:27.494Z,3.85
2024-03-03T02:16:29.859Z,3.87
2024-03-03T02:19:35.853Z,4.65
2024-03-03T02:22:38.367Z,4.38
2024-03-03T02:25:41.216Z,4.25
2024-03-03T02:28:43.782Z,5.03
2024-03-03T02:31:45.983Z,4.93
2024-03-03T02:34:48.228Z,5.10
2024-03-03T02:37:50.501Z,4.55
2024-03-03T02:40:52.763Z,5.20
2024-03-03T02:43:55.168Z,4.65
2024-03-03T02:46:57.402Z,5.30
2024-03-03T02:49:59.662Z,5.38
2024-03-03T02:53:02.279Z,4.10
2024-03-03T02:56:06.225Z,5.13
2024-03-03T02:59:08.512Z,5.13
2024-03-03T03:02:10.824Z,4.90
2024-03-03T03:05:13.130Z,4.78
2024-03-03T03:08:15.411Z,5.40
2024-03-03T03:11:17.657Z,4.45
2024-03-03T03:14:20.111Z,4.57
2024-03-03T03:17:24.536Z,4.23
2024-03-03T03:20:26.893Z,4.57
2024-03-03T03:23:29.176Z,4.13
2024-03-03T03:26:31.404Z,5.35
2024-03-03T03:29:33.667Z,5.05
2024-03-03T03:32:35.897Z,5.63
2024-03-03T03:35:38.311Z,5.35
2024-03-03T03:38:40.529Z,5.93
2024-03-03T03:41:50.231Z,6.63
2024-03-03T03:44:52.506Z,5.63
2024-03-03T03:47:55.466Z,5.53
2024-03-03T03:50:57.725Z,6.15
2024-03-03T03:53:59.901Z,5.97
2024-03-03T03:57:02.137Z,6.18
2024-03-03T04:00:06.468Z,4.95
2024-03-03T04:03:14.995Z,5.73
2024-03-03T04:06:17.207Z,5.85
2024-03-03T04:09:19.401Z,4.90
2024-03-03T04:12:21.582Z,5.53
2024-03-03T04:15:23.994Z,5.35
2024-03-03T04:18:29.124Z,6.40
2024-03-03T04:21:32.949Z,5.10
2024-03-03T04:24:35.353Z,6.03
2024-03-03T04:27:39.734Z,7.13
2024-03-03T04:30:42.085Z,6.47
2024-03-03T04:33:44.408Z,4.97
2024-03-03T04:36:47.065Z,5.53
2024-03-03T04:39:49.372Z,5.40
2024-03-03T04:42:51.988Z,5.82
2024-03-03T04:45:56.609Z,6.38
2024-03-03T04:49:00.473Z,6.87
2024-03-03T04:52:02.902Z,6.47
2024-03-03T04:55:06.973Z,7.10
2024-03-03T04:58:09.242Z,6.70
2024-03-03T05:01:11.962Z,6.25
2024-03-03T05:04:15.005Z,5.73
2024-03-03T05:07:17.861Z,6.30
2024-03-03T05:10:20.127Z,5.85
2024-03-03T05:13:22.465Z,5.75
2024-03-03T05:16:24.812Z,5.78
2024-03-03T05:19:27.072Z,5.43
2024-03-03T05:22:29.531Z,5.57
2024-03-03T05:25:31.741Z,6.18
2024-03-03T05:28:34.101Z,7.00
2024-03-03T05:31:41.802Z,6.13
2024-03-03T05:34:44.005Z,5.77
2024-03-03T05:37:46.210Z,5.72
2024-03-03T05:40:48.482Z,4.68
2024-03-03T05:43:50.662Z,4.88
2024-03-03T05:46:52.906Z,6.03
2024-03-03T05:49:55.243Z,4.67
2024-03-03T05:52:57.467Z,4.68
2024-03-03T05:55:59.648Z,5.60
2024-03-03T05:59:01.861Z,5.05
2024-03-03T06:02:04.247Z,5.38
2024-03-03T06:05:09.686Z,4.80
2024-03-03T06:08:11.987Z,5.18
2024-03-03T06:11:16.629Z,4.53
2024-03-03T06:14:18.976Z,5.80
2024-03-03T06:17:21.220Z,5.60
2024-03-03T06:20:23.524Z,6.00
2024-03-03T06:23:26.589Z,5.85
2024-03-03T06:26:33.822Z,4.80
2024-03-03T06:29:36.740Z,5.47
2024-03-03T06:32:39.020Z,4.28
2024-03-03T06:38:44.774Z,6.00
2024-03-03T06:41:47.020Z,4.63
2024-03-03T06:44:49.419Z,6.00
2024-03-03T06:47:51.643Z,5.18
2024-03-03T06:50:53.860Z,4.87
2024-03-03T06:53:56.169Z,4.75
2024-03-03T06:56:58.482Z,6.28
2024-03-03T07:00:04.666Z,6.38
2024-03-03T07:03:09.872Z,4.70
2024-03-03T07:06:12.109Z,4.37
2024-03-03T07:09:14.337Z,6.22
2024-03-03T07:12:16.616Z,6.45
2024-03-03T07:15:18.909Z,5.47
2024-03-03T07:18:21.122Z,5.25
2024-03-03T07:21:23.341Z,5.80
2024-03-03T07:24:25.632Z,5.78
2024-03-03T07:27:27.834Z,5.25
2024-03-03T07:30:30.070Z,5.10
2024-03-03T07:33:32.833Z,5.05
2024-03-03T07:36:35.041Z,5.80
2024-03-03T07:39:37.290Z,6.28
2024-03-03T07:42:39.547Z,5.15
2024-03-03T07:45:41.973Z,5.38
2024-03-03T07:48:46.156Z,5.38
2024-03-03T07:51:48.602Z,5.53
2024-03-03T07:54:50.915Z,5.18
2024-03-03T07:57:53.243Z,5.40
2024-03-03T08:00:55.647Z,5.95
2024-03-03T08:03:57.951Z,6.00
2024-03-03T08:07:00.290Z,5.03
2024-03-03T08:10:02.764Z,5.32
2024-03-03T08:13:05.299Z,6.50
2024-03-03T08:16:08.213Z,4.78
2024-03-03T08:19:10.517Z,3.38
2024-03-03T08:22:12.909Z,5.80
2024-03-03T08:25:19.618Z,5.85
2024-03-03T08:28:21.941Z,6.05
2024-03-03T08:31:24.209Z,5.15
2024-03-03T08:34:26.517Z,5.40
2024-03-03T08:37:28.825Z,5.83
2024-03-03T08:40:31.147Z,5.60
2024-03-03T08:43:33.465Z,5.03
2024-03-03T08:46:35.780Z,6.40
2024-03-03T08:49:38.033Z,4.85
2024-03-03T08:52:43.226Z,5.30
2024-03-03T08:55:46.698Z,5.35
2024-03-03T08:58:49.006Z,6.25
2024-03-03T09:01:51.437Z,5.43
2024-03-03T09:04:54.146Z,6.18
2024-03-03T09:07:56.410Z,6.30
2024-03-03T09:11:02.708Z,5.55
2024-03-03T09:14:05.539Z,6.25
2024-03-03T09:17:07.814Z,6.72
2024-03-03T09:20:11.084Z,6.22
2024-03-03T09:23:13.327Z,5.77
2024-03-03T09:26:15.908Z,4.40
2024-03-03T09:29:19.269Z,6.72
2024-03-03T09:32:22.727Z,5.75
2024-03-03T09:35:24.966Z,5.72
2024-03-03T09:38:27.216Z,5.73
2024-03-03T09:41:29.795Z,6.65
2024-03-03T09:44:37.068Z,5.82
2024-03-03T09:47:40.628Z,5.75
2024-03-03T09:50:43.751Z,6.75
2024-03-03T09:53:46.076Z,8.07
2024-03-03T09:56:49.227Z,6.97
2024-03-03T09:59:54.770Z,6.32
2024-03-03T10:02:57.717Z,7.38
2024-03-03T10:06:05.104Z,3.80
2024-03-03T10:09:10.448Z,8.37
2024-03-03T10:12:13.450Z,7.57
2024-03-03T10:15:16.152Z,7.55
2024-03-03T10:18:21.543Z,8.25
2024-03-03T10:21:24.348Z,8.10
2024-03-03T10:24:27.511Z,8.47
2024-03-03T10:27:29.792Z,7.65
2024-03-03T10:30:34.348Z,6.85
2024-03-03T10:33:36.566Z,7.80
2024-03-03T10:36:38.992Z,8.30
2024-03-03T10:39:41.432Z,9.20
2024-03-03T10:42:43.839Z,7.95
2024-03-03T10:45:46.228Z,8.77
2024-03-03T10:48:48.818Z,7.20
2024-03-03T10:51:51.735Z,9.07
2024-03-03T10:54:54.519Z,9.40
2024-03-03T10:57:57.078Z,6.85
2024-03-03T11:00:59.908Z,7.45
2024-03-03T11:04:05.563Z,7.65
2024-03-03T11:07:07.899Z,7.75
2024-03-03T11:10:10.615Z,6.37
2024-03-03T11:13:14.098Z,7.85
2024-03-03T11:16:16.684Z,7.90
2024-03-03T11:19:27.792Z,6.70
2024-03-03T11:22:35.662Z,7.85
2024-03-03T11:25:43.945Z,7.50
2024-03-03T11:28:49.806Z,6.65
2024-03-03T11:31:52.615Z,8.27
2024-03-03T11:34:56.203Z,6.63
2024-03-03T11:37:58.497Z,6.15
2024-03-03T11:41:00.757Z,7.37
2024-03-03T11:44:03.838Z,6.60
2024-03-03T11:47:06.632Z,7.55
2024-03-03T11:50:19.637Z,7.43
2024-03-03T11:53:23.126Z,7.40
2024-03-03T11:56:28.341Z,6.93
2024-03-03T11:59:44.541Z,6.50
2024-03-03T12:02:47.148Z,6.25
2024-03-03T12:05:51.217Z,6.53
2024-03-03T12:08:59.591Z,7.95
2024-03-03T12:12:01.873Z,7.70
2024-03-03T12:15:04.377Z,5.45
2024-03-03T12:18:12.666Z,6.18
2024-03-03T12:21:15.334Z,6.07
2024-03-03T12:24:17.583Z,5.95
2024-03-03T12:27:19.852Z,7.77
2024-03-03T12:30:23.686Z,6.78
2024-03-03T12:33:25.970Z,6.57
2024-03-03T12:36:28.374Z,5.10
2024-03-03T12:39:31.295Z,4.07
2024-03-03T12:42:33.533Z,5.57
2024-03-03T12:45:36.393Z,4.70
2024-03-03T12:48:39.057Z,4.40
2024-03-03T12:51:41.445Z,4.07
2024-03-03T12:54:43.847Z,3.70
2024-03-03T12:57:46.236Z,3.67
2024-03-03T13:00:49.856Z,4.43
2024-03-03T13:03:54.290Z,3.88
2024-03-03T13:07:00.606Z,5.82
2024-03-03T13:10:22.277Z,5.22
2024-03-03T13:13:24.717Z,5.10
2024-03-03T13:16:27.258Z,4.93
2024-03-03T13:19:45.745Z,5.18
2024-03-03T13:22:48.077Z,4.90
2024-03-03T13:25:52.261Z,4.45
2024-03-03T13:28:54.735Z,4.60
2024-03-03T13:31:57.037Z,3.35
2024-03-03T13:34:59.275Z,4.57
2024-03-03T13:38:01.573Z,4.57
2024-03-03T13:41:04.087Z,4.03
2024-03-03T13:44:06.600Z,3.93
2024-03-03T13:47:10.209Z,4.53
2024-03-03T13:50:12.457Z,4.53
2024-03-03T13:53:17.243Z,3.78
2024-03-03T13:56:19.680Z,3.53
2024-03-03T13:59:21.980Z,4.33
2024-03-03T14:02:24.200Z,4.07
2024-03-03T14:05:26.705Z,4.32
2024-03-03T14:08:29.083Z,3.20
2024-03-03T14:11:31.345Z,3.90
2024-03-03T14:14:33.542Z,4.00
2024-03-03T14:17:36.077Z,3.92
2024-03-03T14:20:39.588Z,3.63
2024-03-03T14:23:41.945Z,3.50
2024-03-03T14:26:44.104Z,4.00
2024-03-03T14:29:46.435Z,3.67
2024-03-03T14:32:48.732Z,3.90
2024-03-03T14:35:52.216Z,3.22
2024-03-03T14:38:54.910Z,3.17
2024-03-03T14:41:57.104Z,3.95
2024-03-03T14:44:59.307Z,3.77
2024-03-03T14:48:01.551Z,3.60
2024-03-03T14:51:03.925Z,3.63
2024-03-03T14:54:06.184Z,4.00
2024-03-03T14:57:08.498Z,4.20
2024-03-03T15:00:13.631Z,4.07
2024-03-03T15:03:16.020Z,3.70
2024-03-03T15:06:18.598Z,3.22
2024-03-03T15:09:20.780Z,3.92
2024-03-03T15:12:25.458Z,2.85
2024-03-03T15:15:27.670Z,3.87
2024-03-03T15:18:30.074Z,3.92
2024-03-03T15:21:32.240Z,3.72
2024-03-03T15:24:34.473Z,4.10
2024-03-03T15:27:36.784Z,4.00
2024-03-03T15:30:42.056Z,3.60
2024-03-03T15:33:44.318Z,4.00
2024-03-03T15:36:46.502Z,3.55
2024-03-03T15:39:48.955Z,4.55
2024-03-03T15:42:52.226Z,4.43
2024-03-03T15:45:54.549Z,4.53
2024-03-03T15:48:56.938Z,3.92
2024-03-03T15:52:00.002Z,4.68
2024-03-03T15:55:02.570Z,4.75
2024-03-03T15:58:05.576Z,3.88
2024-03-03T16:01:07.979Z,4.60
2024-03-03T16:04:10.573Z,4.35
2024-03-03T16:07:18.376Z,5.05
2024-03-03T16:10:20.805Z,5.15
2024-03-03T16:13:24.320Z,5.47
2024-03-03T16:16:30.741Z,5.00
2024-03-03T16:19:33.263Z,5.13
2024-03-03T16:22:36.281Z,5.32
2024-03-03T16:25:38.670Z,5.70
2024-03-03T16:28:40.984Z,6.22
2024-03-03T16:31:43.308Z,5.80
2024-03-03T16:34:45.760Z,5.93
2024-03-03T16:37:48.640Z,5.72
2024-03-03T16:40:51.073Z,6.97
2024-03-03T16:43:53.378Z,6.00
2024-03-03T16:46:56.073Z,5.63
2024-03-03T16:49:58.617Z,6.50
2024-03-03T16:53:01.084Z,5.55
2024-03-03T16:56:05.768Z,6.25
2024-03-03T16:59:08.286Z,5.90
2024-03-03T17:02:10.698Z,5.97
2024-03-03T17:05:15.129Z,5.70
2024-03-03T17:08:17.619Z,5.72
2024-03-03T17:11:20.208Z,5.38
2024-03-03T17:14:22.541Z,5.57
2024-03-03T17:17:25.151Z,5.93
2024-03-03T17:20:27.620Z,5.90
2024-03-03T17:23:30.158Z,6.00
2024-03-03T17:26:33.584Z,5.70
2024-03-03T17:29:36.716Z,5.57
2024-03-03T17:32:39.075Z,5.20
2024-03-03T17:35:41.617Z,5.30
2024-03-03T17:38:43.902Z,5.30
2024-03-03T17:41:46.798Z,5.57
2024-03-03T17:44:49.197Z,5.80
2024-03-03T17:47:52.200Z,5.63
2024-03-03T17:50:54.906Z,5.80
2024-03-03T17:53:58.790Z,6.50
2024-03-03T17:57:01.058Z,6.47
2024-03-03T18:00:04.506Z,5.57
2024-03-03T18:03:14.766Z,5.67
2024-03-03T18:06:18.519Z,5.53
2024-03-03T18:09:20.788Z,6.30
2024-03-03T18:12:25.001Z,6.53
2024-03-03T18:15:29.062Z,6.57
2024-03-03T18:18:31.886Z,5.80
2024-03-03T18:21:34.174Z,6.53
2024-03-03T18:24:36.573Z,5.80
2024-03-03T18:27:39.472Z,6.45
2024-03-03T18:30:44.356Z,7.00
2024-03-03T18:33:46.860Z,7.03
2024-03-03T18:36:52.456Z,7.13
2024-03-03T18:39:57.069Z,6.82
2024-03-03T18:42:59.541Z,7.18
2024-03-03T18:46:01.793Z,6.45
2024-03-03T18:49:05.080Z,6.93
2024-03-03T18:52:07.667Z,6.75
2024-03-03T18:55:10.095Z,5.85
2024-03-03T18:58:12.639Z,5.65
2024-03-03T19:01:16.492Z,6.13
2024-03-03T19:04:19.161Z,5.57
2024-03-03T19:07:21.606Z,5.45
2024-03-03T19:10:24.863Z,5.70
2024-03-03T19:13:27.710Z,4.80
2024-03-03T19:16:31.633Z,5.10
2024-03-03T19:19:36.780Z,6.37
2024-03-03T19:22:40.581Z,5.97
2024-03-03T19:25:43.432Z,4.93
2024-03-03T19:28:45.635Z,6.03
2024-03-03T19:31:48.124Z,4.78
2024-03-03T19:34:50.514Z,5.43
2024-03-03T19:37:53.046Z,5.05
2024-03-03T19:40:55.919Z,5.00
2024-03-03T19:44:00.465Z,5.82
2024-03-03T19:47:03.288Z,4.53
2024-03-03T19:50:06.168Z,5.40
2024-03-03T19:53:10.219Z,5.82
2024-03-03T19:56:12.733Z,5.18
2024-03-03T19:59:16.008Z,4.57
2024-03-03T20:02:18.472Z,5.55
2024-03-03T20:05:21.279Z,5.30
2024-03-03T20:08:23.766Z,5.00
2024-03-03T20:11:26.319Z,4.78
2024-03-03T20:14:28.795Z,5.65
2024-03-03T20:17:31.234Z,5.03
2024-03-03T20:20:33.763Z,5.53
2024-03-03T20:23:36.821Z,4.68
2024-03-03T20:26:41.588Z,5.35
2024-03-03T20:29:44.138Z,4.90
2024-03-03T20:32:46.871Z,4.88
2024-03-03T20:35:50.307Z,5.57
2024-03-03T20:38:53.081Z,5.30
2024-03-03T20:41:55.430Z,5.20
2024-03-03T20:44:58.252Z,4.65
2024-03-03T20:48:00.611Z,5.10
2024-03-03T20:51:02.989Z,5.27
2024-03-03T20:54:06.366Z,5.35
2024-03-03T20:57:09.900Z,5.05
2024-03-03T21:00:12.675Z,4.88
2024-03-03T21:03:15.320Z,4.35
2024-03-03T21:06:18.774Z,5.30
2024-03-03T21:09:21.291Z,4.18
2024-03-03T21:12:24.098Z,4.68
2024-03-03T21:15:26.354Z,4.65
2024-03-03T21:18:31.200Z,4.82
2024-03-03T21:21:35.084Z,5.17
2024-03-03T21:24:40.888Z,4.45
2024-03-03T21:27:43.203Z,4.57
2024-03-03T21:30:45.589Z,4.35
2024-03-03T21:33:48.364Z,4.82
2024-03-03T21:36:50.683Z,4.57
2024-03-03T21:39:53.279Z,5.15
2024-03-03T21:42:56.623Z,5.05
2024-03-03T21:45:58.943Z,4.72
2024-03-03T21:49:01.232Z,4.85
2024-03-03T21:52:03.579Z,4.80
2024-03-03T21:55:05.945Z,5.07
2024-03-03T21:58:09.865Z,5.00
2024-03-03T22:01:12.196Z,5.07
2024-03-03T22:04:14.586Z,6.32
2024-03-03T22:07:17.055Z,5.67
2024-03-03T22:10:19.331Z,6.20
2024-03-03T22:13:21.667Z,5.60
2024-03-03T22:16:24.043Z,5.68
2024-03-03T22:19:27.563Z,5.47
2024-03-03T22:22:30.082Z,6.13
2024-03-03T22:25:32.426Z,6.03
2024-03-03T22:28:34.713Z,5.82
2024-03-03T22:31:39.982Z,5.93
2024-03-03T22:34:42.311Z,6.72
2024-03-03T22:37:44.622Z,6.17
2024-03-03T22:40:47.313Z,5.32
2024-03-03T22:43:49.508Z,4.95
2024-03-03T22:46:54.574Z,4.72
2024-03-03T22:50:00.082Z,4.95
2024-03-03T22:53:02.282Z,5.20
2024-03-03T22:56:05.315Z,5.35
2024-03-03T22:59:07.581Z,5.07
2024-03-03T23:02:09.937Z,6.25
2024-03-03T23:05:12.328Z,6.40
2024-03-03T23:08:14.691Z,6.33
2024-03-03T23:11:16.962Z,5.80
2024-03-03T23:14:19.258Z,5.35
2024-03-03T23:17:21.522Z,6.75
2024-03-03T23:20:23.766Z,5.88
2024-03-03T23:23:26.350Z,5.83
2024-03-03T23:26:29.211Z,6.15
2024-03-03T23:29:31.512Z,5.45
2024-03-03T23:32:33.738Z,5.95
2024-03-03T23:35:35.942Z,5.97
2024-03-03T23:38:38.327Z,5.87
2024-03-03T23:41:40.920Z,5.47
2024-03-03T23:44:43.186Z,5.60
2024-03-03T23:47:45.434Z,5.07
2024-03-03T23:50:47.652Z,6.03
2024-03-03T23:53:50.972Z,5.73
2024-03-03T23:56:53.511Z,5.03
2024-03-03T23:59:55.721Z,4.55
